sensor_id;sensor_type;location;lat;lon;timestamp;P1;durP1;ratioP1;P2;durP2;ratioP2
23730;SDS011;12046;44.702;10.622;2023-07-31T00:01:59;2.58;;;1.85;;
23730;SDS011;12046;44.702;10.622;2023-07-31T00:04:33;2.38;;;1.80;;
23730;SDS011;12046;44.702;10.622;2023-07-31T00:06:59;2.03;;;1.90;;
23730;SDS011;12046;44.702;10.622;2023-07-31T00:09:25;2.58;;;1.88;;
23730;SDS011;12046;44.702;10.622;2023-07-31T00:11:57;2.45;;;1.95;;
23730;SDS011;12046;44.702;10.622;2023-07-31T00:14:22;1.83;;;1.73;;
23730;SDS011;12046;44.702;10.622;2023-07-31T00:16:51;2.10;;;1.85;;
23730;SDS011;12046;44.702;10.622;2023-07-31T00:19:17;2.13;;;1.90;;
23730;SDS011;12046;44.702;10.622;2023-07-31T00:21:43;3.28;;;2.10;;
23730;SDS011;12046;44.702;10.622;2023-07-31T00:24:25;2.72;;;1.80;;
23730;SDS011;12046;44.702;10.622;2023-07-31T00:26:53;2.80;;;1.58;;
23730;SDS011;12046;44.702;10.622;2023-07-31T00:32:09;3.08;;;1.73;;
23730;SDS011;12046;44.702;10.622;2023-07-31T00:37:27;1.98;;;1.80;;
23730;SDS011;12046;44.702;10.622;2023-07-31T00:39:56;1.70;;;1.60;;
23730;SDS011;12046;44.702;10.622;2023-07-31T00:42:22;2.03;;;1.60;;
23730;SDS011;12046;44.702;10.622;2023-07-31T00:44:48;2.08;;;1.70;;
23730;SDS011;12046;44.702;10.622;2023-07-31T00:47:15;1.63;;;1.52;;
23730;SDS011;12046;44.702;10.622;2023-07-31T00:49:41;2.42;;;1.80;;
23730;SDS011;12046;44.702;10.622;2023-07-31T00:52:16;1.63;;;1.52;;
23730;SDS011;12046;44.702;10.622;2023-07-31T00:55:11;1.95;;;1.58;;
23730;SDS011;12046;44.702;10.622;2023-07-31T00:57:43;2.00;;;1.80;;
23730;SDS011;12046;44.702;10.622;2023-07-31T01:03:00;1.63;;;1.50;;
23730;SDS011;12046;44.702;10.622;2023-07-31T01:11:30;2.03;;;1.58;;
23730;SDS011;12046;44.702;10.622;2023-07-31T01:14:10;2.42;;;1.70;;
23730;SDS011;12046;44.702;10.622;2023-07-31T01:16:36;2.10;;;1.90;;
23730;SDS011;12046;44.702;10.622;2023-07-31T01:19:02;2.38;;;1.67;;
23730;SDS011;12046;44.702;10.622;2023-07-31T01:27:15;1.75;;;1.65;;
23730;SDS011;12046;44.702;10.622;2023-07-31T01:32:45;1.60;;;1.50;;
23730;SDS011;12046;44.702;10.622;2023-07-31T01:35:13;1.52;;;1.40;;
23730;SDS011;12046;44.702;10.622;2023-07-31T01:37:40;1.90;;;1.80;;
23730;SDS011;12046;44.702;10.622;2023-07-31T01:40:06;2.17;;;1.52;;
23730;SDS011;12046;44.702;10.622;2023-07-31T01:42:32;1.80;;;1.70;;
23730;SDS011;12046;44.702;10.622;2023-07-31T01:45:04;1.70;;;1.60;;
23730;SDS011;12046;44.702;10.622;2023-07-31T01:47:39;1.92;;;1.65;;
23730;SDS011;12046;44.702;10.622;2023-07-31T01:50:14;1.75;;;1.65;;
23730;SDS011;12046;44.702;10.622;2023-07-31T01:52:39;2.00;;;1.67;;
23730;SDS011;12046;44.702;10.622;2023-07-31T01:55:05;2.08;;;1.88;;
23730;SDS011;12046;44.702;10.622;2023-07-31T01:57:40;1.70;;;1.60;;
23730;SDS011;12046;44.702;10.622;2023-07-31T02:00:11;1.80;;;1.65;;
23730;SDS011;12046;44.702;10.622;2023-07-31T02:02:43;1.95;;;1.80;;
23730;SDS011;12046;44.702;10.622;2023-07-31T02:08:34;2.92;;;1.73;;
23730;SDS011;12046;44.702;10.622;2023-07-31T02:11:06;2.95;;;2.00;;
23730;SDS011;12046;44.702;10.622;2023-07-31T02:13:31;2.20;;;2.00;;
23730;SDS011;12046;44.702;10.622;2023-07-31T02:15:57;1.90;;;1.70;;
23730;SDS011;12046;44.702;10.622;2023-07-31T02:18:35;2.75;;;1.80;;
23730;SDS011;12046;44.702;10.622;2023-07-31T02:21:01;2.45;;;1.73;;
23730;SDS011;12046;44.702;10.622;2023-07-31T02:23:27;3.05;;;2.33;;
23730;SDS011;12046;44.702;10.622;2023-07-31T02:25:53;2.10;;;1.80;;
23730;SDS011;12046;44.702;10.622;2023-07-31T02:28:31;1.60;;;1.50;;
23730;SDS011;12046;44.702;10.622;2023-07-31T02:31:00;2.00;;;1.80;;
23730;SDS011;12046;44.702;10.622;2023-07-31T02:33:25;2.10;;;1.85;;
23730;SDS011;12046;44.702;10.622;2023-07-31T02:35:51;2.65;;;1.90;;
23730;SDS011;12046;44.702;10.622;2023-07-31T02:38:29;2.92;;;2.00;;
23730;SDS011;12046;44.702;10.622;2023-07-31T02:40:54;2.55;;;1.90;;
23730;SDS011;12046;44.702;10.622;2023-07-31T02:43:29;2.00;;;1.70;;
23730;SDS011;12046;44.702;10.622;2023-07-31T02:45:59;1.70;;;1.60;;
23730;SDS011;12046;44.702;10.622;2023-07-31T02:48:24;1.88;;;1.77;;
23730;SDS011;12046;44.702;10.622;2023-07-31T02:50:50;1.80;;;1.70;;
23730;SDS011;12046;44.702;10.622;2023-07-31T02:53:16;3.25;;;2.17;;
23730;SDS011;12046;44.702;10.622;2023-07-31T02:55:57;2.55;;;2.35;;
23730;SDS011;12046;44.702;10.622;2023-07-31T03:01:26;2.97;;;2.78;;
23730;SDS011;12046;44.702;10.622;2023-07-31T03:03:58;3.30;;;3.00;;
23730;SDS011;12046;44.702;10.622;2023-07-31T03:07:27;2.63;;;2.42;;
23730;SDS011;12046;44.702;10.622;2023-07-31T03:09:55;3.15;;;2.38;;
23730;SDS011;12046;44.702;10.622;2023-07-31T03:12:21;3.72;;;3.42;;
23730;SDS011;12046;44.702;10.622;2023-07-31T03:14:56;2.83;;;2.63;;
23730;SDS011;12046;44.702;10.622;2023-07-31T03:17:28;2.88;;;2.58;;
23730;SDS011;12046;44.702;10.622;2023-07-31T03:19:57;3.25;;;2.95;;
23730;SDS011;12046;44.702;10.622;2023-07-31T03:22:28;4.80;;;3.40;;
23730;SDS011;12046;44.702;10.622;2023-07-31T03:24:54;3.72;;;3.15;;
23730;SDS011;12046;44.702;10.622;2023-07-31T03:27:29;3.13;;;2.90;;
23730;SDS011;12046;44.702;10.622;2023-07-31T03:29:55;3.00;;;2.70;;
23730;SDS011;12046;44.702;10.622;2023-07-31T03:32:29;3.47;;;2.65;;
23730;SDS011;12046;44.702;10.622;2023-07-31T03:35:01;2.40;;;2.17;;
23730;SDS011;12046;44.702;10.622;2023-07-31T03:37:27;2.67;;;2.47;;
23730;SDS011;12046;44.702;10.622;2023-07-31T03:39:57;4.43;;;3.10;;
23730;SDS011;12046;44.702;10.622;2023-07-31T03:42:23;3.78;;;3.38;;
23730;SDS011;12046;44.702;10.622;2023-07-31T03:44:48;3.17;;;2.97;;
23730;SDS011;12046;44.702;10.622;2023-07-31T03:47:14;3.95;;;3.65;;
23730;SDS011;12046;44.702;10.622;2023-07-31T03:55:06;3.80;;;3.50;;
23730;SDS011;12046;44.702;10.622;2023-07-31T03:57:32;3.50;;;3.20;;
23730;SDS011;12046;44.702;10.622;2023-07-31T03:59:58;3.83;;;3.53;;
23730;SDS011;12046;44.702;10.622;2023-07-31T04:17:58;5.53;;;5.03;;
23730;SDS011;12046;44.702;10.622;2023-07-31T04:20:27;4.25;;;3.40;;
23730;SDS011;12046;44.702;10.622;2023-07-31T04:22:55;3.30;;;3.00;;
23730;SDS011;12046;44.702;10.622;2023-07-31T04:25:24;4.18;;;2.70;;
23730;SDS011;12046;44.702;10.622;2023-07-31T04:27:57;2.65;;;2.45;;
23730;SDS011;12046;44.702;10.622;2023-07-31T04:30:32;3.00;;;2.70;;
23730;SDS011;12046;44.702;10.622;2023-07-31T04:33:04;2.80;;;2.60;;
23730;SDS011;12046;44.702;10.622;2023-07-31T04:35:30;2.92;;;2.72;;
23730;SDS011;12046;44.702;10.622;2023-07-31T04:37:55;2.58;;;2.38;;
23730;SDS011;12046;44.702;10.622;2023-07-31T04:40:27;2.80;;;2.55;;
23730;SDS011;12046;44.702;10.622;2023-07-31T04:43:02;2.95;;;2.75;;
23730;SDS011;12046;44.702;10.622;2023-07-31T04:45:28;2.53;;;2.33;;
23730;SDS011;12046;44.702;10.622;2023-07-31T04:48:03;2.63;;;2.42;;
23730;SDS011;12046;44.702;10.622;2023-07-31T04:50:29;2.80;;;2.50;;
23730;SDS011;12046;44.702;10.622;2023-07-31T04:53:02;3.75;;;2.75;;
23730;SDS011;12046;44.702;10.622;2023-07-31T04:55:28;3.13;;;2.80;;
23730;SDS011;12046;44.702;10.622;2023-07-31T04:57:53;3.03;;;2.72;;
23730;SDS011;12046;44.702;10.622;2023-07-31T05:00:19;3.28;;;2.97;;
23730;SDS011;12046;44.702;10.622;2023-07-31T05:02:45;3.13;;;2.92;;
23730;SDS011;12046;44.702;10.622;2023-07-31T05:05:11;3.00;;;2.80;;
23730;SDS011;12046;44.702;10.622;2023-07-31T05:07:39;3.30;;;3.00;;
23730;SDS011;12046;44.702;10.622;2023-07-31T05:10:15;2.97;;;2.78;;
23730;SDS011;12046;44.702;10.622;2023-07-31T05:12:40;3.67;;;2.95;;
23730;SDS011;12046;44.702;10.622;2023-07-31T05:15:09;3.35;;;3.00;;
23730;SDS011;12046;44.702;10.622;2023-07-31T05:17:38;3.85;;;3.03;;
23730;SDS011;12046;44.702;10.622;2023-07-31T05:20:16;3.60;;;3.30;;
23730;SDS011;12046;44.702;10.622;2023-07-31T05:22:54;3.05;;;2.75;;
23730;SDS011;12046;44.702;10.622;2023-07-31T05:25:28;3.97;;;2.85;;
23730;SDS011;12046;44.702;10.622;2023-07-31T05:30:30;3.15;;;2.65;;
23730;SDS011;12046;44.702;10.622;2023-07-31T05:32:56;3.25;;;2.95;;
23730;SDS011;12046;44.702;10.622;2023-07-31T05:35:28;3.00;;;2.70;;
23730;SDS011;12046;44.702;10.622;2023-07-31T05:37:57;5.63;;;3.10;;
23730;SDS011;12046;44.702;10.622;2023-07-31T05:40:25;3.05;;;2.58;;
23730;SDS011;12046;44.702;10.622;2023-07-31T05:45:27;3.33;;;2.70;;
23730;SDS011;12046;44.702;10.622;2023-07-31T05:47:53;3.53;;;2.22;;
23730;SDS011;12046;44.702;10.622;2023-07-31T05:52:54;3.53;;;2.70;;
23730;SDS011;12046;44.702;10.622;2023-07-31T05:55:20;2.83;;;2.50;;
23730;SDS011;12046;44.702;10.622;2023-07-31T05:57:46;4.25;;;3.28;;
23730;SDS011;12046;44.702;10.622;2023-07-31T06:05:40;3.95;;;2.80;;
23730;SDS011;12046;44.702;10.622;2023-07-31T06:10:59;3.57;;;2.90;;
23730;SDS011;12046;44.702;10.622;2023-07-31T06:25:12;6.55;;;3.67;;
23730;SDS011;12046;44.702;10.622;2023-07-31T06:27:51;5.22;;;4.00;;
23730;SDS011;12046;44.702;10.622;2023-07-31T06:32:52;3.03;;;2.70;;
23730;SDS011;12046;44.702;10.622;2023-07-31T06:35:19;4.22;;;3.00;;
23730;SDS011;12046;44.702;10.622;2023-07-31T06:37:44;5.85;;;3.95;;
23730;SDS011;12046;44.702;10.622;2023-07-31T06:40:10;5.85;;;3.38;;
23730;SDS011;12046;44.702;10.622;2023-07-31T06:42:36;4.15;;;3.33;;
23730;SDS011;12046;44.702;10.622;2023-07-31T06:45:02;5.32;;;3.85;;
23730;SDS011;12046;44.702;10.622;2023-07-31T06:47:28;4.43;;;4.00;;
23730;SDS011;12046;44.702;10.622;2023-07-31T06:49:57;4.15;;;3.72;;
23730;SDS011;12046;44.702;10.622;2023-07-31T06:52:23;2.08;;;1.92;;
23730;SDS011;12046;44.702;10.622;2023-07-31T06:55:00;2.65;;;2.45;;
23730;SDS011;12046;44.702;10.622;2023-07-31T06:57:28;2.42;;;2.22;;
23730;SDS011;12046;44.702;10.622;2023-07-31T06:59:54;2.72;;;2.53;;
23730;SDS011;12046;44.702;10.622;2023-07-31T07:02:20;2.60;;;2.40;;
23730;SDS011;12046;44.702;10.622;2023-07-31T07:04:46;2.78;;;2.50;;
23730;SDS011;12046;44.702;10.622;2023-07-31T07:07:11;2.33;;;2.00;;
23730;SDS011;12046;44.702;10.622;2023-07-31T07:09:37;2.17;;;1.98;;
23730;SDS011;12046;44.702;10.622;2023-07-31T07:12:03;2.55;;;2.35;;
23730;SDS011;12046;44.702;10.622;2023-07-31T07:14:29;2.20;;;2.00;;
23730;SDS011;12046;44.702;10.622;2023-07-31T07:16:54;3.58;;;2.67;;
23730;SDS011;12046;44.702;10.622;2023-07-31T07:19:20;3.55;;;2.40;;
23730;SDS011;12046;44.702;10.622;2023-07-31T07:21:46;2.30;;;2.10;;
23730;SDS011;12046;44.702;10.622;2023-07-31T07:24:12;3.22;;;2.60;;
23730;SDS011;12046;44.702;10.622;2023-07-31T07:26:37;3.88;;;2.80;;
23730;SDS011;12046;44.702;10.622;2023-07-31T07:29:03;2.42;;;2.15;;
23730;SDS011;12046;44.702;10.622;2023-07-31T07:31:32;3.35;;;2.55;;
23730;SDS011;12046;44.702;10.622;2023-07-31T07:33:58;2.67;;;2.28;;
23730;SDS011;12046;44.702;10.622;2023-07-31T07:36:24;2.65;;;2.13;;
23730;SDS011;12046;44.702;10.622;2023-07-31T07:38:49;4.90;;;2.70;;
23730;SDS011;12046;44.702;10.622;2023-07-31T07:41:15;3.80;;;2.80;;
23730;SDS011;12046;44.702;10.622;2023-07-31T07:43:41;2.30;;;2.10;;
23730;SDS011;12046;44.702;10.622;2023-07-31T07:46:07;2.33;;;2.03;;
23730;SDS011;12046;44.702;10.622;2023-07-31T07:48:32;2.53;;;2.15;;
23730;SDS011;12046;44.702;10.622;2023-07-31T07:50:58;4.10;;;2.40;;
23730;SDS011;12046;44.702;10.622;2023-07-31T07:53:24;2.88;;;2.20;;
23730;SDS011;12046;44.702;10.622;2023-07-31T07:55:50;2.88;;;2.15;;
23730;SDS011;12046;44.702;10.622;2023-07-31T07:58:16;1.95;;;1.80;;
23730;SDS011;12046;44.702;10.622;2023-07-31T08:00:42;2.08;;;1.88;;
23730;SDS011;12046;44.702;10.622;2023-07-31T08:03:13;2.30;;;1.77;;
23730;SDS011;12046;44.702;10.622;2023-07-31T08:05:39;1.75;;;1.65;;
23730;SDS011;12046;44.702;10.622;2023-07-31T08:08:04;4.13;;;2.63;;
23730;SDS011;12046;44.702;10.622;2023-07-31T08:10:30;4.78;;;3.30;;
23730;SDS011;12046;44.702;10.622;2023-07-31T08:12:56;4.63;;;3.50;;
23730;SDS011;12046;44.702;10.622;2023-07-31T08:15:22;4.43;;;2.88;;
23730;SDS011;12046;44.702;10.622;2023-07-31T08:17:48;3.53;;;2.60;;
23730;SDS011;12046;44.702;10.622;2023-07-31T08:20:13;3.38;;;2.60;;
23730;SDS011;12046;44.702;10.622;2023-07-31T08:22:39;3.80;;;2.42;;
23730;SDS011;12046;44.702;10.622;2023-07-31T08:25:08;3.25;;;1.90;;
23730;SDS011;12046;44.702;10.622;2023-07-31T08:27:34;2.03;;;1.83;;
23730;SDS011;12046;44.702;10.622;2023-07-31T08:29:59;2.88;;;2.03;;
23730;SDS011;12046;44.702;10.622;2023-07-31T08:32:25;2.08;;;1.85;;
23730;SDS011;12046;44.702;10.622;2023-07-31T08:34:51;1.90;;;1.80;;
23730;SDS011;12046;44.702;10.622;2023-07-31T08:37:17;2.53;;;1.90;;
23730;SDS011;12046;44.702;10.622;2023-07-31T08:39:46;2.10;;;1.90;;
23730;SDS011;12046;44.702;10.622;2023-07-31T08:42:14;2.08;;;1.58;;
23730;SDS011;12046;44.702;10.622;2023-07-31T08:44:40;1.58;;;1.48;;
23730;SDS011;12046;44.702;10.622;2023-07-31T08:47:07;1.70;;;1.60;;
23730;SDS011;12046;44.702;10.622;2023-07-31T08:49:33;3.20;;;1.40;;
23730;SDS011;12046;44.702;10.622;2023-07-31T08:52:00;1.73;;;1.60;;
23730;SDS011;12046;44.702;10.622;2023-07-31T08:54:27;1.60;;;1.50;;
23730;SDS011;12046;44.702;10.622;2023-07-31T08:56:56;1.30;;;1.20;;
23730;SDS011;12046;44.702;10.622;2023-07-31T08:59:23;2.00;;;1.48;;
23730;SDS011;12046;44.702;10.622;2023-07-31T09:01:53;1.45;;;1.35;;
23730;SDS011;12046;44.702;10.622;2023-07-31T09:04:20;2.45;;;1.40;;
23730;SDS011;12046;44.702;10.622;2023-07-31T09:06:57;1.33;;;1.23;;
23730;SDS011;12046;44.702;10.622;2023-07-31T09:09:26;1.45;;;1.35;;
23730;SDS011;12046;44.702;10.622;2023-07-31T09:11:52;2.88;;;1.70;;
23730;SDS011;12046;44.702;10.622;2023-07-31T09:14:18;1.60;;;1.50;;
23730;SDS011;12046;44.702;10.622;2023-07-31T09:16:51;1.45;;;1.35;;
23730;SDS011;12046;44.702;10.622;2023-07-31T09:19:25;1.40;;;1.30;;
23730;SDS011;12046;44.702;10.622;2023-07-31T09:21:52;1.33;;;1.23;;
23730;SDS011;12046;44.702;10.622;2023-07-31T09:24:31;1.48;;;1.30;;
23730;SDS011;12046;44.702;10.622;2023-07-31T09:27:01;1.45;;;1.30;;
23730;SDS011;12046;44.702;10.622;2023-07-31T09:29:28;1.50;;;1.40;;
23730;SDS011;12046;44.702;10.622;2023-07-31T09:31:54;1.55;;;1.45;;
23730;SDS011;12046;44.702;10.622;2023-07-31T09:34:37;3.85;;;1.67;;
23730;SDS011;12046;44.702;10.622;2023-07-31T09:37:06;2.00;;;1.48;;
23730;SDS011;12046;44.702;10.622;2023-07-31T09:39:32;1.77;;;1.67;;
23730;SDS011;12046;44.702;10.622;2023-07-31T09:42:13;2.42;;;1.90;;
23730;SDS011;12046;44.702;10.622;2023-07-31T09:44:40;1.75;;;1.65;;
23730;SDS011;12046;44.702;10.622;2023-07-31T09:47:06;2.20;;;1.65;;
23730;SDS011;12046;44.702;10.622;2023-07-31T09:49:45;2.35;;;1.85;;
23730;SDS011;12046;44.702;10.622;2023-07-31T09:52:12;2.13;;;1.67;;
23730;SDS011;12046;44.702;10.622;2023-07-31T09:54:38;1.60;;;1.50;;
23730;SDS011;12046;44.702;10.622;2023-07-31T09:57:04;1.48;;;1.38;;
23730;SDS011;12046;44.702;10.622;2023-07-31T09:59:30;1.50;;;1.40;;
23730;SDS011;12046;44.702;10.622;2023-07-31T10:02:05;1.50;;;1.40;;
23730;SDS011;12046;44.702;10.622;2023-07-31T10:07:05;1.92;;;1.80;;
23730;SDS011;12046;44.702;10.622;2023-07-31T10:09:31;1.60;;;1.40;;
23730;SDS011;12046;44.702;10.622;2023-07-31T10:12:01;1.77;;;1.50;;
23730;SDS011;12046;44.702;10.622;2023-07-31T10:14:30;1.70;;;1.60;;
23730;SDS011;12046;44.702;10.622;2023-07-31T10:16:57;1.60;;;1.50;;
23730;SDS011;12046;44.702;10.622;2023-07-31T10:19:30;1.65;;;1.55;;
23730;SDS011;12046;44.702;10.622;2023-07-31T10:21:57;2.30;;;1.90;;
23730;SDS011;12046;44.702;10.622;2023-07-31T10:24:24;2.97;;;1.67;;
23730;SDS011;12046;44.702;10.622;2023-07-31T10:26:57;2.20;;;1.63;;
23730;SDS011;12046;44.702;10.622;2023-07-31T10:29:25;2.00;;;1.77;;
23730;SDS011;12046;44.702;10.622;2023-07-31T10:31:52;2.40;;;2.00;;
23730;SDS011;12046;44.702;10.622;2023-07-31T10:34:21;1.50;;;1.40;;
23730;SDS011;12046;44.702;10.622;2023-07-31T10:36:47;2.22;;;1.77;;
23730;SDS011;12046;44.702;10.622;2023-07-31T10:39:33;1.67;;;1.58;;
23730;SDS011;12046;44.702;10.622;2023-07-31T10:42:12;1.45;;;1.35;;
23730;SDS011;12046;44.702;10.622;2023-07-31T10:44:43;1.60;;;1.50;;
23730;SDS011;12046;44.702;10.622;2023-07-31T10:47:10;1.50;;;1.40;;
23730;SDS011;12046;44.702;10.622;2023-07-31T10:49:39;1.85;;;1.70;;
23730;SDS011;12046;44.702;10.622;2023-07-31T10:52:05;2.03;;;1.80;;
23730;SDS011;12046;44.702;10.622;2023-07-31T10:54:40;2.47;;;1.70;;
23730;SDS011;12046;44.702;10.622;2023-07-31T10:57:22;1.60;;;1.50;;
23730;SDS011;12046;44.702;10.622;2023-07-31T10:59:56;2.15;;;1.52;;
23730;SDS011;12046;44.702;10.622;2023-07-31T11:02:58;3.85;;;2.35;;
23730;SDS011;12046;44.702;10.622;2023-07-31T11:08:29;2.10;;;1.77;;
23730;SDS011;12046;44.702;10.622;2023-07-31T11:13:32;2.00;;;1.77;;
23730;SDS011;12046;44.702;10.622;2023-07-31T11:16:07;2.20;;;1.80;;
23730;SDS011;12046;44.702;10.622;2023-07-31T11:18:38;1.95;;;1.73;;
23730;SDS011;12046;44.702;10.622;2023-07-31T11:21:06;3.22;;;1.65;;
23730;SDS011;12046;44.702;10.622;2023-07-31T11:23:38;1.55;;;1.40;;
23730;SDS011;12046;44.702;10.622;2023-07-31T11:26:04;3.45;;;1.80;;
23730;SDS011;12046;44.702;10.622;2023-07-31T11:35:02;1.80;;;1.63;;
23730;SDS011;12046;44.702;10.622;2023-07-31T11:37:45;1.42;;;1.33;;
23730;SDS011;12046;44.702;10.622;2023-07-31T11:40:17;1.60;;;1.50;;
23730;SDS011;12046;44.702;10.622;2023-07-31T11:42:47;2.67;;;1.63;;
23730;SDS011;12046;44.702;10.622;2023-07-31T11:45:12;1.75;;;1.60;;
23730;SDS011;12046;44.702;10.622;2023-07-31T11:47:38;2.38;;;1.60;;
23730;SDS011;12046;44.702;10.622;2023-07-31T11:50:05;1.60;;;1.50;;
23730;SDS011;12046;44.702;10.622;2023-07-31T11:52:34;2.45;;;1.77;;
23730;SDS011;12046;44.702;10.622;2023-07-31T11:55:10;1.85;;;1.52;;
23730;SDS011;12046;44.702;10.622;2023-07-31T11:57:40;2.22;;;1.50;;
23730;SDS011;12046;44.702;10.622;2023-07-31T12:00:09;1.58;;;1.48;;
23730;SDS011;12046;44.702;10.622;2023-07-31T12:02:36;1.60;;;1.50;;
23730;SDS011;12046;44.702;10.622;2023-07-31T12:05:05;1.65;;;1.55;;
23730;SDS011;12046;44.702;10.622;2023-07-31T12:10:31;1.70;;;1.60;;
23730;SDS011;12046;44.702;10.622;2023-07-31T12:15:38;2.17;;;1.80;;
23730;SDS011;12046;44.702;10.622;2023-07-31T12:18:09;2.25;;;1.80;;
23730;SDS011;12046;44.702;10.622;2023-07-31T12:20:44;3.30;;;1.73;;
23730;SDS011;12046;44.702;10.622;2023-07-31T12:23:20;2.25;;;1.40;;
23730;SDS011;12046;44.702;10.622;2023-07-31T12:28:36;1.77;;;1.67;;
23730;SDS011;12046;44.702;10.622;2023-07-31T12:31:07;1.92;;;1.73;;
23730;SDS011;12046;44.702;10.622;2023-07-31T12:33:40;1.95;;;1.80;;
23730;SDS011;12046;44.702;10.622;2023-07-31T12:36:08;2.00;;;1.77;;
23730;SDS011;12046;44.702;10.622;2023-07-31T12:38:35;1.90;;;1.50;;
23730;SDS011;12046;44.702;10.622;2023-07-31T12:41:00;3.17;;;1.65;;
23730;SDS011;12046;44.702;10.622;2023-07-31T12:43:26;1.80;;;1.63;;
23730;SDS011;12046;44.702;10.622;2023-07-31T12:45:53;3.10;;;1.88;;
23730;SDS011;12046;44.702;10.622;2023-07-31T12:48:24;1.70;;;1.60;;
23730;SDS011;12046;44.702;10.622;2023-07-31T12:50:50;3.90;;;1.70;;
23730;SDS011;12046;44.702;10.622;2023-07-31T12:53:16;1.98;;;1.80;;
23730;SDS011;12046;44.702;10.622;2023-07-31T12:55:41;2.70;;;1.70;;
23730;SDS011;12046;44.702;10.622;2023-07-31T12:58:16;2.00;;;1.83;;
23730;SDS011;12046;44.702;10.622;2023-07-31T13:00:42;2.60;;;1.98;;
23730;SDS011;12046;44.702;10.622;2023-07-31T13:03:08;2.40;;;1.70;;
23730;SDS011;12046;44.702;10.622;2023-07-31T13:05:34;2.28;;;1.75;;
23730;SDS011;12046;44.702;10.622;2023-07-31T13:08:00;1.42;;;1.33;;
23730;SDS011;12046;44.702;10.622;2023-07-31T13:10:26;2.72;;;1.90;;
23730;SDS011;12046;44.702;10.622;2023-07-31T13:12:53;1.92;;;1.83;;
23730;SDS011;12046;44.702;10.622;2023-07-31T13:15:26;1.63;;;1.52;;
23730;SDS011;12046;44.702;10.622;2023-07-31T13:17:51;1.90;;;1.80;;
23730;SDS011;12046;44.702;10.622;2023-07-31T13:20:17;2.03;;;1.83;;
23730;SDS011;12046;44.702;10.622;2023-07-31T13:22:43;2.53;;;1.70;;
23730;SDS011;12046;44.702;10.622;2023-07-31T13:25:12;3.17;;;1.80;;
23730;SDS011;12046;44.702;10.622;2023-07-31T13:27:38;2.53;;;2.05;;
23730;SDS011;12046;44.702;10.622;2023-07-31T13:30:04;3.38;;;2.30;;
23730;SDS011;12046;44.702;10.622;2023-07-31T13:32:42;2.75;;;1.95;;
23730;SDS011;12046;44.702;10.622;2023-07-31T13:35:08;2.45;;;1.98;;
23730;SDS011;12046;44.702;10.622;2023-07-31T13:37:37;3.22;;;2.17;;
23730;SDS011;12046;44.702;10.622;2023-07-31T13:40:05;3.92;;;2.08;;
23730;SDS011;12046;44.702;10.622;2023-07-31T13:42:34;2.78;;;2.30;;
23730;SDS011;12046;44.702;10.622;2023-07-31T13:45:09;1.75;;;1.65;;
23730;SDS011;12046;44.702;10.622;2023-07-31T13:47:44;2.90;;;2.00;;
23730;SDS011;12046;44.702;10.622;2023-07-31T13:50:09;2.30;;;2.10;;
23730;SDS011;12046;44.702;10.622;2023-07-31T13:52:35;2.08;;;1.73;;
23730;SDS011;12046;44.702;10.622;2023-07-31T13:55:04;1.88;;;1.77;;
23730;SDS011;12046;44.702;10.622;2023-07-31T13:57:30;1.85;;;1.75;;
23730;SDS011;12046;44.702;10.622;2023-07-31T13:59:59;1.92;;;1.80;;
23730;SDS011;12046;44.702;10.622;2023-07-31T14:02:28;2.35;;;2.03;;
23730;SDS011;12046;44.702;10.622;2023-07-31T14:04:54;3.28;;;1.92;;
23730;SDS011;12046;44.702;10.622;2023-07-31T14:07:20;1.75;;;1.65;;
23730;SDS011;12046;44.702;10.622;2023-07-31T14:09:48;2.58;;;2.10;;
23730;SDS011;12046;44.702;10.622;2023-07-31T14:12:14;1.85;;;1.70;;
23730;SDS011;12046;44.702;10.622;2023-07-31T14:14:48;2.35;;;2.10;;
23730;SDS011;12046;44.702;10.622;2023-07-31T14:17:14;1.70;;;1.58;;
23730;SDS011;12046;44.702;10.622;2023-07-31T14:19:53;2.22;;;2.00;;
23730;SDS011;12046;44.702;10.622;2023-07-31T14:22:35;2.80;;;2.00;;
23730;SDS011;12046;44.702;10.622;2023-07-31T14:25:12;2.50;;;1.90;;
23730;SDS011;12046;44.702;10.622;2023-07-31T14:27:38;2.72;;;1.98;;
23730;SDS011;12046;44.702;10.622;2023-07-31T14:30:04;1.70;;;1.60;;
23730;SDS011;12046;44.702;10.622;2023-07-31T14:32:31;2.72;;;2.03;;
23730;SDS011;12046;44.702;10.622;2023-07-31T14:34:56;1.90;;;1.80;;
23730;SDS011;12046;44.702;10.622;2023-07-31T14:37:25;2.90;;;2.20;;
23730;SDS011;12046;44.702;10.622;2023-07-31T14:39:55;3.35;;;2.10;;
23730;SDS011;12046;44.702;10.622;2023-07-31T14:42:21;1.88;;;1.77;;
23730;SDS011;12046;44.702;10.622;2023-07-31T14:44:46;1.77;;;1.55;;
23730;SDS011;12046;44.702;10.622;2023-07-31T14:47:12;3.53;;;1.73;;
23730;SDS011;12046;44.702;10.622;2023-07-31T14:49:38;2.42;;;1.77;;
23730;SDS011;12046;44.702;10.622;2023-07-31T14:52:04;2.10;;;1.85;;
23730;SDS011;12046;44.702;10.622;2023-07-31T14:54:30;2.75;;;2.47;;
23730;SDS011;12046;44.702;10.622;2023-07-31T14:56:55;2.65;;;2.45;;
23730;SDS011;12046;44.702;10.622;2023-07-31T14:59:21;2.80;;;2.35;;
23730;SDS011;12046;44.702;10.622;2023-07-31T15:01:47;3.03;;;2.10;;
23730;SDS011;12046;44.702;10.622;2023-07-31T15:04:13;5.72;;;4.60;;
23730;SDS011;12046;44.702;10.622;2023-07-31T15:06:38;3.53;;;3.20;;
23730;SDS011;12046;44.702;10.622;2023-07-31T15:09:04;4.15;;;3.00;;
23730;SDS011;12046;44.702;10.622;2023-07-31T15:11:30;2.90;;;2.70;;
23730;SDS011;12046;44.702;10.622;2023-07-31T15:13:56;2.25;;;2.05;;
23730;SDS011;12046;44.702;10.622;2023-07-31T15:16:22;2.17;;;1.98;;
23730;SDS011;12046;44.702;10.622;2023-07-31T15:18:47;2.90;;;2.70;;
23730;SDS011;12046;44.702;10.622;2023-07-31T15:21:13;3.03;;;2.63;;
23730;SDS011;12046;44.702;10.622;2023-07-31T15:23:39;2.20;;;2.10;;
23730;SDS011;12046;44.702;10.622;2023-07-31T15:26:05;1.90;;;1.73;;
23730;SDS011;12046;44.702;10.622;2023-07-31T15:28:31;2.00;;;1.90;;
23730;SDS011;12046;44.702;10.622;2023-07-31T15:30:59;1.90;;;1.80;;
23730;SDS011;12046;44.702;10.622;2023-07-31T15:33:25;2.17;;;2.00;;
23730;SDS011;12046;44.702;10.622;2023-07-31T15:35:51;2.42;;;2.22;;
23730;SDS011;12046;44.702;10.622;2023-07-31T15:38:23;2.38;;;2.17;;
23730;SDS011;12046;44.702;10.622;2023-07-31T15:40:49;2.10;;;2.00;;
23730;SDS011;12046;44.702;10.622;2023-07-31T15:43:15;2.42;;;2.22;;
23730;SDS011;12046;44.702;10.622;2023-07-31T15:45:42;2.38;;;2.00;;
23730;SDS011;12046;44.702;10.622;2023-07-31T15:48:08;2.50;;;2.05;;
23730;SDS011;12046;44.702;10.622;2023-07-31T15:50:34;2.00;;;1.90;;
23730;SDS011;12046;44.702;10.622;2023-07-31T15:53:00;1.90;;;1.80;;
23730;SDS011;12046;44.702;10.622;2023-07-31T15:55:25;2.00;;;1.90;;
23730;SDS011;12046;44.702;10.622;2023-07-31T15:57:51;2.42;;;1.85;;
23730;SDS011;12046;44.702;10.622;2023-07-31T16:00:17;1.50;;;1.40;;
23730;SDS011;12046;44.702;10.622;2023-07-31T16:02:43;2.08;;;1.90;;
23730;SDS011;12046;44.702;10.622;2023-07-31T16:05:09;2.10;;;1.90;;
23730;SDS011;12046;44.702;10.622;2023-07-31T16:07:35;1.90;;;1.80;;
23730;SDS011;12046;44.702;10.622;2023-07-31T16:10:04;2.95;;;2.00;;
23730;SDS011;12046;44.702;10.622;2023-07-31T16:12:31;3.28;;;1.83;;
23730;SDS011;12046;44.702;10.622;2023-07-31T16:14:57;1.83;;;1.73;;
23730;SDS011;12046;44.702;10.622;2023-07-31T16:17:23;2.38;;;1.92;;
23730;SDS011;12046;44.702;10.622;2023-07-31T16:19:49;1.75;;;1.50;;
23730;SDS011;12046;44.702;10.622;2023-07-31T16:22:15;3.33;;;1.80;;
23730;SDS011;12046;44.702;10.622;2023-07-31T16:24:43;2.20;;;1.45;;
23730;SDS011;12046;44.702;10.622;2023-07-31T16:27:09;1.65;;;1.55;;